sensor_id;sensor_type;location;lat;lon;timestamp;P1;durP1;ratioP1;P2;durP2;ratioP2
16393;SDS011;8306;51.128;4.476;2024-01-25T00:01:02;42.70;;;8.27;;
16393;SDS011;8306;51.128;4.476;2024-01-25T00:03:28;53.23;;;8.60;;
16393;SDS011;8306;51.128;4.476;2024-01-25T00:05:54;49.73;;;9.17;;
16393;SDS011;8306;51.128;4.476;2024-01-25T00:08:21;50.93;;;8.20;;
16393;SDS011;8306;51.128;4.476;2024-01-25T00:10:47;50.77;;;9.30;;
16393;SDS011;8306;51.128;4.476;2024-01-25T00:13:14;44.07;;;8.10;;
16393;SDS011;8306;51.128;4.476;2024-01-25T00:15:40;42.87;;;8.70;;
16393;SDS011;8306;51.128;4.476;2024-01-25T00:18:07;49.83;;;9.53;;
16393;SDS011;8306;51.128;4.476;2024-01-25T00:20:33;51.60;;;8.23;;
16393;SDS011;8306;51.128;4.476;2024-01-25T00:23:00;53.13;;;8.43;;
16393;SDS011;8306;51.128;4.476;2024-01-25T00:25:26;45.23;;;8.20;;
16393;SDS011;8306;51.128;4.476;2024-01-25T00:27:53;43.03;;;9.00;;
16393;SDS011;8306;51.128;4.476;2024-01-25T00:30:19;49.53;;;8.97;;
16393;SDS011;8306;51.128;4.476;2024-01-25T00:32:46;59.97;;;8.77;;
16393;SDS011;8306;51.128;4.476;2024-01-25T00:35:12;52.17;;;9.80;;
16393;SDS011;8306;51.128;4.476;2024-01-25T00:37:39;46.60;;;8.87;;
16393;SDS011;8306;51.128;4.476;2024-01-25T00:40:06;46.57;;;8.83;;
16393;SDS011;8306;51.128;4.476;2024-01-25T00:42:52;45.57;;;8.27;;
16393;SDS011;8306;51.128;4.476;2024-01-25T00:45:09;44.63;;;8.10;;
16393;SDS011;8306;51.128;4.476;2024-01-25T00:47:35;55.37;;;9.87;;
16393;SDS011;8306;51.128;4.476;2024-01-25T00:50:02;51.00;;;9.00;;
16393;SDS011;8306;51.128;4.476;2024-01-25T00:52:28;47.90;;;9.17;;
16393;SDS011;8306;51.128;4.476;2024-01-25T00:54:55;47.17;;;8.27;;
16393;SDS011;8306;51.128;4.476;2024-01-25T00:57:21;48.80;;;8.67;;
16393;SDS011;8306;51.128;4.476;2024-01-25T00:59:48;41.23;;;7.83;;
16393;SDS011;8306;51.128;4.476;2024-01-25T01:02:14;41.87;;;7.90;;
16393;SDS011;8306;51.128;4.476;2024-01-25T01:04:41;51.83;;;9.07;;
16393;SDS011;8306;51.128;4.476;2024-01-25T01:07:08;44.60;;;8.33;;
16393;SDS011;8306;51.128;4.476;2024-01-25T01:09:34;60.03;;;8.93;;
16393;SDS011;8306;51.128;4.476;2024-01-25T01:12:01;38.13;;;7.33;;
16393;SDS011;8306;51.128;4.476;2024-01-25T01:14:27;58.10;;;9.07;;
16393;SDS011;8306;51.128;4.476;2024-01-25T01:16:54;63.90;;;9.57;;
16393;SDS011;8306;51.128;4.476;2024-01-25T01:19:20;58.13;;;8.87;;
16393;SDS011;8306;51.128;4.476;2024-01-25T01:21:47;45.10;;;8.90;;
16393;SDS011;8306;51.128;4.476;2024-01-25T01:24:13;52.33;;;8.73;;
16393;SDS011;8306;51.128;4.476;2024-01-25T01:26:40;45.37;;;8.17;;
16393;SDS011;8306;51.128;4.476;2024-01-25T01:29:06;49.63;;;8.47;;
16393;SDS011;8306;51.128;4.476;2024-01-25T01:31:32;45.80;;;8.37;;
16393;SDS011;8306;51.128;4.476;2024-01-25T01:33:59;37.60;;;7.77;;
16393;SDS011;8306;51.128;4.476;2024-01-25T01:36:26;47.73;;;8.53;;
16393;SDS011;8306;51.128;4.476;2024-01-25T01:38:52;37.07;;;7.20;;
16393;SDS011;8306;51.128;4.476;2024-01-25T01:41:18;46.87;;;8.80;;
16393;SDS011;8306;51.128;4.476;2024-01-25T01:43:45;41.70;;;8.50;;
16393;SDS011;8306;51.128;4.476;2024-01-25T01:46:16;35.50;;;7.40;;
16393;SDS011;8306;51.128;4.476;2024-01-25T01:48:46;48.57;;;9.17;;
16393;SDS011;8306;51.128;4.476;2024-01-25T01:51:13;42.17;;;7.67;;
16393;SDS011;8306;51.128;4.476;2024-01-25T01:53:39;56.40;;;9.60;;
16393;SDS011;8306;51.128;4.476;2024-01-25T01:56:06;38.60;;;8.10;;
16393;SDS011;8306;51.128;4.476;2024-01-25T01:58:32;51.60;;;8.47;;
16393;SDS011;8306;51.128;4.476;2024-01-25T02:00:59;51.93;;;8.80;;
16393;SDS011;8306;51.128;4.476;2024-01-25T02:03:25;44.57;;;7.37;;
16393;SDS011;8306;51.128;4.476;2024-01-25T02:05:52;59.33;;;9.37;;
16393;SDS011;8306;51.128;4.476;2024-01-25T02:08:18;50.17;;;8.97;;
16393;SDS011;8306;51.128;4.476;2024-01-25T02:10:45;50.53;;;8.00;;
16393;SDS011;8306;51.128;4.476;2024-01-25T02:13:11;43.93;;;7.77;;
16393;SDS011;8306;51.128;4.476;2024-01-25T02:15:38;41.43;;;8.73;;
16393;SDS011;8306;51.128;4.476;2024-01-25T02:18:04;47.13;;;7.67;;
16393;SDS011;8306;51.128;4.476;2024-01-25T02:20:31;47.87;;;8.23;;
16393;SDS011;8306;51.128;4.476;2024-01-25T02:22:57;41.80;;;7.80;;
16393;SDS011;8306;51.128;4.476;2024-01-25T02:25:24;55.27;;;8.37;;
16393;SDS011;8306;51.128;4.476;2024-01-25T02:27:50;51.37;;;8.33;;
16393;SDS011;8306;51.128;4.476;2024-01-25T02:30:17;55.37;;;9.40;;
16393;SDS011;8306;51.128;4.476;2024-01-25T02:32:43;51.73;;;8.83;;
16393;SDS011;8306;51.128;4.476;2024-01-25T02:35:10;70.77;;;9.90;;
16393;SDS011;8306;51.128;4.476;2024-01-25T02:37:36;54.13;;;8.40;;
16393;SDS011;8306;51.128;4.476;2024-01-25T02:40:03;52.17;;;8.60;;
16393;SDS011;8306;51.128;4.476;2024-01-25T02:42:29;40.50;;;7.97;;
16393;SDS011;8306;51.128;4.476;2024-01-25T02:44:56;49.33;;;8.33;;
16393;SDS011;8306;51.128;4.476;2024-01-25T02:47:22;41.53;;;8.27;;
16393;SDS011;8306;51.128;4.476;2024-01-25T02:49:49;47.40;;;8.17;;
16393;SDS011;8306;51.128;4.476;2024-01-25T02:52:15;50.53;;;9.30;;
16393;SDS011;8306;51.128;4.476;2024-01-25T02:54:41;41.80;;;7.77;;
16393;SDS011;8306;51.128;4.476;2024-01-25T02:57:08;55.23;;;8.53;;
16393;SDS011;8306;51.128;4.476;2024-01-25T02:59:34;55.03;;;8.73;;
16393;SDS011;8306;51.128;4.476;2024-01-25T03:02:01;41.07;;;8.07;;
16393;SDS011;8306;51.128;4.476;2024-01-25T03:04:27;44.07;;;7.57;;
16393;SDS011;8306;51.128;4.476;2024-01-25T03:06:54;55.37;;;8.23;;
16393;SDS011;8306;51.128;4.476;2024-01-25T03:09:20;48.23;;;8.20;;
16393;SDS011;8306;51.128;4.476;2024-01-25T03:11:47;64.03;;;9.13;;
16393;SDS011;8306;51.128;4.476;2024-01-25T03:14:13;41.60;;;7.03;;
16393;SDS011;8306;51.128;4.476;2024-01-25T03:16:40;47.13;;;8.00;;
16393;SDS011;8306;51.128;4.476;2024-01-25T03:19:06;38.43;;;7.83;;
16393;SDS011;8306;51.128;4.476;2024-01-25T03:21:33;39.90;;;7.97;;
16393;SDS011;8306;51.128;4.476;2024-01-25T03:23:59;55.83;;;8.17;;
16393;SDS011;8306;51.128;4.476;2024-01-25T03:26:29;56.70;;;8.80;;
16393;SDS011;8306;51.128;4.476;2024-01-25T03:28:55;59.87;;;8.20;;
16393;SDS011;8306;51.128;4.476;2024-01-25T03:31:21;38.10;;;7.47;;
16393;SDS011;8306;51.128;4.476;2024-01-25T03:33:48;36.13;;;7.03;;
16393;SDS011;8306;51.128;4.476;2024-01-25T03:36:17;44.23;;;7.33;;
16393;SDS011;8306;51.128;4.476;2024-01-25T03:38:41;43.30;;;7.47;;
16393;SDS011;8306;51.128;4.476;2024-01-25T03:41:07;28.67;;;6.97;;
16393;SDS011;8306;51.128;4.476;2024-01-25T03:43:34;39.13;;;7.40;;
16393;SDS011;8306;51.128;4.476;2024-01-25T03:46:00;34.70;;;6.77;;
16393;SDS011;8306;51.128;4.476;2024-01-25T03:48:27;34.90;;;7.33;;
16393;SDS011;8306;51.128;4.476;2024-01-25T03:50:53;35.70;;;7.70;;
16393;SDS011;8306;51.128;4.476;2024-01-25T03:53:20;29.17;;;6.77;;
16393;SDS011;8306;51.128;4.476;2024-01-25T03:55:46;28.20;;;6.10;;
16393;SDS011;8306;51.128;4.476;2024-01-25T03:58:13;31.13;;;6.43;;
16393;SDS011;8306;51.128;4.476;2024-01-25T04:00:39;38.70;;;6.70;;
16393;SDS011;8306;51.128;4.476;2024-01-25T04:03:06;33.13;;;7.40;;
16393;SDS011;8306;51.128;4.476;2024-01-25T04:05:32;43.83;;;7.53;;
16393;SDS011;8306;51.128;4.476;2024-01-25T04:07:59;38.60;;;6.80;;
16393;SDS011;8306;51.128;4.476;2024-01-25T04:10:25;54.77;;;8.53;;
16393;SDS011;8306;51.128;4.476;2024-01-25T04:12:52;49.87;;;8.50;;
16393;SDS011;8306;51.128;4.476;2024-01-25T04:15:18;49.33;;;8.27;;
16393;SDS011;8306;51.128;4.476;2024-01-25T04:17:45;40.23;;;7.43;;
16393;SDS011;8306;51.128;4.476;2024-01-25T04:20:11;35.40;;;7.07;;
16393;SDS011;8306;51.128;4.476;2024-01-25T04:22:38;46.10;;;7.90;;
16393;SDS011;8306;51.128;4.476;2024-01-25T04:25:04;75.27;;;10.03;;
16393;SDS011;8306;51.128;4.476;2024-01-25T04:27:31;78.17;;;10.13;;
16393;SDS011;8306;51.128;4.476;2024-01-25T04:29:57;45.30;;;8.57;;
16393;SDS011;8306;51.128;4.476;2024-01-25T04:32:23;35.67;;;7.70;;
16393;SDS011;8306;51.128;4.476;2024-01-25T04:34:50;39.13;;;7.87;;
16393;SDS011;8306;51.128;4.476;2024-01-25T04:37:16;38.30;;;8.00;;
16393;SDS011;8306;51.128;4.476;2024-01-25T04:39:43;49.00;;;8.00;;
16393;SDS011;8306;51.128;4.476;2024-01-25T04:42:09;46.00;;;7.40;;
16393;SDS011;8306;51.128;4.476;2024-01-25T04:44:36;33.83;;;7.60;;
16393;SDS011;8306;51.128;4.476;2024-01-25T04:47:02;35.47;;;7.03;;
16393;SDS011;8306;51.128;4.476;2024-01-25T04:49:29;34.10;;;7.77;;
16393;SDS011;8306;51.128;4.476;2024-01-25T04:51:55;46.77;;;8.33;;
16393;SDS011;8306;51.128;4.476;2024-01-25T04:54:22;32.73;;;6.60;;
16393;SDS011;8306;51.128;4.476;2024-01-25T04:56:48;35.03;;;6.97;;
16393;SDS011;8306;51.128;4.476;2024-01-25T04:59:15;38.10;;;7.40;;
16393;SDS011;8306;51.128;4.476;2024-01-25T05:01:41;33.77;;;7.23;;
16393;SDS011;8306;51.128;4.476;2024-01-25T05:04:08;33.80;;;6.67;;
16393;SDS011;8306;51.128;4.476;2024-01-25T05:06:34;45.97;;;8.43;;
16393;SDS011;8306;51.128;4.476;2024-01-25T05:09:01;22.27;;;6.33;;
16393;SDS011;8306;51.128;4.476;2024-01-25T05:11:27;21.43;;;5.83;;
16393;SDS011;8306;51.128;4.476;2024-01-25T05:13:54;27.47;;;6.60;;
16393;SDS011;8306;51.128;4.476;2024-01-25T05:16:20;17.80;;;5.87;;
16393;SDS011;8306;51.128;4.476;2024-01-25T05:18:47;26.70;;;6.93;;
16393;SDS011;8306;51.128;4.476;2024-01-25T05:21:13;41.87;;;6.67;;
16393;SDS011;8306;51.128;4.476;2024-01-25T05:23:40;37.50;;;7.20;;
16393;SDS011;8306;51.128;4.476;2024-01-25T05:26:06;49.57;;;7.23;;
16393;SDS011;8306;51.128;4.476;2024-01-25T05:28:32;33.47;;;6.60;;
16393;SDS011;8306;51.128;4.476;2024-01-25T05:30:59;43.63;;;7.77;;
16393;SDS011;8306;51.128;4.476;2024-01-25T05:33:25;32.20;;;6.70;;
16393;SDS011;8306;51.128;4.476;2024-01-25T05:35:52;24.60;;;5.90;;
16393;SDS011;8306;51.128;4.476;2024-01-25T05:38:18;31.30;;;6.40;;
16393;SDS011;8306;51.128;4.476;2024-01-25T05:40:45;34.27;;;7.13;;
16393;SDS011;8306;51.128;4.476;2024-01-25T05:43:11;37.57;;;7.03;;
16393;SDS011;8306;51.128;4.476;2024-01-25T05:45:38;20.17;;;5.87;;
16393;SDS011;8306;51.128;4.476;2024-01-25T05:48:04;37.23;;;7.53;;
16393;SDS011;8306;51.128;4.476;2024-01-25T05:50:31;29.90;;;6.50;;
16393;SDS011;8306;51.128;4.476;2024-01-25T05:52:57;27.10;;;6.20;;
16393;SDS011;8306;51.128;4.476;2024-01-25T05:55:24;28.13;;;6.30;;
16393;SDS011;8306;51.128;4.476;2024-01-25T05:57:50;33.80;;;6.93;;
16393;SDS011;8306;51.128;4.476;2024-01-25T06:00:17;22.27;;;6.60;;
16393;SDS011;8306;51.128;4.476;2024-01-25T06:02:43;46.90;;;7.33;;
16393;SDS011;8306;51.128;4.476;2024-01-25T06:05:10;43.33;;;8.27;;
16393;SDS011;8306;51.128;4.476;2024-01-25T06:07:36;33.27;;;7.33;;
16393;SDS011;8306;51.128;4.476;2024-01-25T06:10:03;19.20;;;6.37;;
16393;SDS011;8306;51.128;4.476;2024-01-25T06:12:30;35.17;;;6.80;;
16393;SDS011;8306;51.128;4.476;2024-01-25T06:14:56;29.20;;;6.60;;
16393;SDS011;8306;51.128;4.476;2024-01-25T06:17:23;26.63;;;7.43;;
16393;SDS011;8306;51.128;4.476;2024-01-25T06:19:49;42.40;;;7.40;;
16393;SDS011;8306;51.128;4.476;2024-01-25T06:22:16;66.90;;;8.23;;
16393;SDS011;8306;51.128;4.476;2024-01-25T06:24:42;36.27;;;7.50;;
16393;SDS011;8306;51.128;4.476;2024-01-25T06:27:12;44.20;;;8.30;;
16393;SDS011;8306;51.128;4.476;2024-01-25T06:29:38;29.67;;;6.60;;
16393;SDS011;8306;51.128;4.476;2024-01-25T06:32:04;27.93;;;6.80;;
16393;SDS011;8306;51.128;4.476;2024-01-25T06:34:31;43.60;;;7.13;;
16393;SDS011;8306;51.128;4.476;2024-01-25T06:36:57;43.50;;;7.17;;
16393;SDS011;8306;51.128;4.476;2024-01-25T06:39:24;38.77;;;7.67;;
16393;SDS011;8306;51.128;4.476;2024-01-25T06:41:50;40.97;;;8.40;;
16393;SDS011;8306;51.128;4.476;2024-01-25T06:44:17;43.13;;;7.00;;
16393;SDS011;8306;51.128;4.476;2024-01-25T06:46:43;32.73;;;7.17;;
16393;SDS011;8306;51.128;4.476;2024-01-25T06:49:10;41.63;;;7.10;;
16393;SDS011;8306;51.128;4.476;2024-01-25T06:51:36;32.70;;;7.10;;
16393;SDS011;8306;51.128;4.476;2024-01-25T06:54:03;30.90;;;7.23;;
16393;SDS011;8306;51.128;4.476;2024-01-25T06:56:29;36.40;;;8.03;;
16393;SDS011;8306;51.128;4.476;2024-01-25T06:58:56;35.57;;;6.93;;
16393;SDS011;8306;51.128;4.476;2024-01-25T07:01:22;53.57;;;8.53;;
16393;SDS011;8306;51.128;4.476;2024-01-25T07:03:49;41.07;;;7.57;;
16393;SDS011;8306;51.128;4.476;2024-01-25T07:06:18;52.30;;;8.63;;
16393;SDS011;8306;51.128;4.476;2024-01-25T07:08:45;41.37;;;7.90;;
16393;SDS011;8306;51.128;4.476;2024-01-25T07:11:11;44.60;;;7.67;;
16393;SDS011;8306;51.128;4.476;2024-01-25T07:13:37;34.77;;;7.70;;
16393;SDS011;8306;51.128;4.476;2024-01-25T07:16:04;40.13;;;8.50;;
16393;SDS011;8306;51.128;4.476;2024-01-25T07:18:30;39.53;;;8.00;;
16393;SDS011;8306;51.128;4.476;2024-01-25T07:20:57;36.73;;;8.13;;
16393;SDS011;8306;51.128;4.476;2024-01-25T07:23:23;41.27;;;7.97;;
16393;SDS011;8306;51.128;4.476;2024-01-25T07:25:50;48.50;;;8.30;;
16393;SDS011;8306;51.128;4.476;2024-01-25T07:28:18;56.13;;;8.83;;
16393;SDS011;8306;51.128;4.476;2024-01-25T07:30:43;52.93;;;9.47;;
16393;SDS011;8306;51.128;4.476;2024-01-25T07:33:09;42.83;;;8.30;;
16393;SDS011;8306;51.128;4.476;2024-01-25T07:35:36;32.83;;;7.40;;
16393;SDS011;8306;51.128;4.476;2024-01-25T07:38:02;35.27;;;8.07;;
16393;SDS011;8306;51.128;4.476;2024-01-25T07:40:29;48.10;;;7.97;;
16393;SDS011;8306;51.128;4.476;2024-01-25T07:42:55;30.37;;;7.37;;
16393;SDS011;8306;51.128;4.476;2024-01-25T07:45:22;44.50;;;8.03;;
16393;SDS011;8306;51.128;4.476;2024-01-25T07:47:48;40.97;;;8.00;;
16393;SDS011;8306;51.128;4.476;2024-01-25T07:50:15;36.00;;;7.87;;
16393;SDS011;8306;51.128;4.476;2024-01-25T07:52:41;58.33;;;8.77;;
16393;SDS011;8306;51.128;4.476;2024-01-25T07:55:08;39.40;;;7.77;;
16393;SDS011;8306;51.128;4.476;2024-01-25T07:57:34;35.73;;;8.17;;
16393;SDS011;8306;51.128;4.476;2024-01-25T08:00:01;54.90;;;8.80;;
16393;SDS011;8306;51.128;4.476;2024-01-25T08:02:27;44.63;;;8.43;;
16393;SDS011;8306;51.128;4.476;2024-01-25T08:04:53;32.27;;;7.97;;
16393;SDS011;8306;51.128;4.476;2024-01-25T08:07:20;21.97;;;6.50;;
16393;SDS011;8306;51.128;4.476;2024-01-25T08:09:46;39.83;;;8.20;;
16393;SDS011;8306;51.128;4.476;2024-01-25T08:12:13;68.93;;;13.17;;
16393;SDS011;8306;51.128;4.476;2024-01-25T08:14:39;49.67;;;12.20;;
16393;SDS011;8306;51.128;4.476;2024-01-25T08:17:06;49.30;;;11.23;;
16393;SDS011;8306;51.128;4.476;2024-01-25T08:19:32;40.80;;;10.33;;
16393;SDS011;8306;51.128;4.476;2024-01-25T08:21:59;45.47;;;10.47;;
16393;SDS011;8306;51.128;4.476;2024-01-25T08:24:25;52.57;;;10.77;;
16393;SDS011;8306;51.128;4.476;2024-01-25T08:26:52;60.17;;;11.50;;
16393;SDS011;8306;51.128;4.476;2024-01-25T08:29:18;42.83;;;11.13;;
16393;SDS011;8306;51.128;4.476;2024-01-25T08:31:45;58.73;;;11.43;;
16393;SDS011;8306;51.128;4.476;2024-01-25T08:34:11;40.27;;;9.80;;
16393;SDS011;8306;51.128;4.476;2024-01-25T08:36:38;27.40;;;9.33;;
16393;SDS011;8306;51.128;4.476;2024-01-25T08:39:04;33.53;;;9.33;;
16393;SDS011;8306;51.128;4.476;2024-01-25T08:41:31;39.33;;;9.63;;
16393;SDS011;8306;51.128;4.476;2024-01-25T08:43:57;63.47;;;12.30;;
16393;SDS011;8306;51.128;4.476;2024-01-25T08:46:24;70.80;;;12.53;;
16393;SDS011;8306;51.128;4.476;2024-01-25T08:48:50;41.13;;;9.53;;
16393;SDS011;8306;51.128;4.476;2024-01-25T08:51:17;56.83;;;11.40;;
16393;SDS011;8306;51.128;4.476;2024-01-25T08:53:43;38.73;;;10.43;;
16393;SDS011;8306;51.128;4.476;2024-01-25T08:56:10;56.00;;;12.70;;
16393;SDS011;8306;51.128;4.476;2024-01-25T08:58:36;48.93;;;12.63;;
16393;SDS011;8306;51.128;4.476;2024-01-25T09:01:03;42.90;;;12.80;;
16393;SDS011;8306;51.128;4.476;2024-01-25T09:03:29;36.97;;;10.80;;
16393;SDS011;8306;51.128;4.476;2024-01-25T09:05:56;57.63;;;13.83;;
16393;SDS011;8306;51.128;4.476;2024-01-25T09:08:22;52.63;;;14.37;;
16393;SDS011;8306;51.128;4.476;2024-01-25T09:10:49;41.30;;;13.43;;
16393;SDS011;8306;51.128;4.476;2024-01-25T09:13:15;28.33;;;11.43;;
16393;SDS011;8306;51.128;4.476;2024-01-25T09:15:41;35.23;;;13.23;;
16393;SDS011;8306;51.128;4.476;2024-01-25T09:18:08;35.83;;;13.37;;
16393;SDS011;8306;51.128;4.476;2024-01-25T09:20:34;25.20;;;11.43;;
16393;SDS011;8306;51.128;4.476;2024-01-25T09:23:01;42.37;;;11.37;;
16393;SDS011;8306;51.128;4.476;2024-01-25T09:25:27;46.97;;;13.10;;
16393;SDS011;8306;51.128;4.476;2024-01-25T09:27:54;56.70;;;15.10;;
16393;SDS011;8306;51.128;4.476;2024-01-25T09:30:20;77.07;;;14.70;;
16393;SDS011;8306;51.128;4.476;2024-01-25T09:32:47;45.20;;;12.37;;
16393;SDS011;8306;51.128;4.476;2024-01-25T09:35:13;47.40;;;15.27;;
16393;SDS011;8306;51.128;4.476;2024-01-25T09:37:40;81.37;;;16.47;;
16393;SDS011;8306;51.128;4.476;2024-01-25T09:40:06;84.03;;;14.50;;
16393;SDS011;8306;51.128;4.476;2024-01-25T09:42:33;78.13;;;16.97;;
16393;SDS011;8306;51.128;4.476;2024-01-25T09:44:59;35.83;;;13.97;;
16393;SDS011;8306;51.128;4.476;2024-01-25T09:47:26;20.03;;;14.13;;
16393;SDS011;8306;51.128;4.476;2024-01-25T09:49:52;106.50;;;18.80;;
16393;SDS011;8306;51.128;4.476;2024-01-25T09:52:19;77.83;;;17.73;;
16393;SDS011;8306;51.128;4.476;2024-01-25T09:54:45;143.43;;;19.53;;
16393;SDS011;8306;51.128;4.476;2024-01-25T09:57:15;167.90;;;22.83;;
16393;SDS011;8306;51.128;4.476;2024-01-25T09:59:44;162.97;;;20.70;;
16393;SDS011;8306;51.128;4.476;2024-01-25T10:02:11;51.80;;;16.57;;
16393;SDS011;8306;51.128;4.476;2024-01-25T10:04:37;51.67;;;17.23;;
16393;SDS011;8306;51.128;4.476;2024-01-25T10:07:04;41.10;;;17.90;;
16393;SDS011;8306;51.128;4.476;2024-01-25T10:09:42;78.67;;;19.43;;
16393;SDS011;8306;51.128;4.476;2024-01-25T10:12:09;73.47;;;20.03;;
16393;SDS011;8306;51.128;4.476;2024-01-25T10:14:35;78.00;;;19.90;;
16393;SDS011;8306;51.128;4.476;2024-01-25T10:17:02;79.20;;;19.90;;
16393;SDS011;8306;51.128;4.476;2024-01-25T10:19:28;60.17;;;19.93;;
16393;SDS011;8306;51.128;4.476;2024-01-25T10:21:55;60.57;;;20.30;;
16393;SDS011;8306;51.128;4.476;2024-01-25T10:24:21;90.13;;;22.83;;
16393;SDS011;8306;51.128;4.476;2024-01-25T10:26:48;64.70;;;21.40;;
16393;SDS011;8306;51.128;4.476;2024-01-25T10:29:14;81.43;;;23.77;;
16393;SDS011;8306;51.128;4.476;2024-01-25T10:31:41;56.90;;;22.50;;
16393;SDS011;8306;51.128;4.476;2024-01-25T10:34:08;45.23;;;21.67;;
16393;SDS011;8306;51.128;4.476;2024-01-25T10:36:36;48.83;;;22.90;;
16393;SDS011;8306;51.128;4.476;2024-01-25T10:39:03;49.03;;;22.43;;
16393;SDS011;8306;51.128;4.476;2024-01-25T10:41:29;71.40;;;24.73;;
16393;SDS011;8306;51.128;4.476;2024-01-25T10:43:56;41.63;;;21.83;;
16393;SDS011;8306;51.128;4.476;2024-01-25T10:46:22;59.90;;;23.67;;
16393;SDS011;8306;51.128;4.476;2024-01-25T10:48:48;62.50;;;25.37;;
16393;SDS011;8306;51.128;4.476;2024-01-25T10:51:15;73.47;;;26.47;;
16393;SDS011;8306;51.128;4.476;2024-01-25T10:53:41;78.20;;;27.40;;
16393;SDS011;8306;51.128;4.476;2024-01-25T10:56:08;52.50;;;23.90;;
16393;SDS011;8306;51.128;4.476;2024-01-25T10:58:34;82.57;;;26.57;;
16393;SDS011;8306;51.128;4.476;2024-01-25T11:01:01;85.67;;;30.17;;
16393;SDS011;8306;51.128;4.476;2024-01-25T11:03:27;105.03;;;31.80;;
16393;SDS011;8306;51.128;4.476;2024-01-25T11:05:54;64.17;;;27.73;;
16393;SDS011;8306;51.128;4.476;2024-01-25T11:08:20;71.83;;;27.90;;
16393;SDS011;8306;51.128;4.476;2024-01-25T11:10:50;83.33;;;29.60;;
16393;SDS011;8306;51.128;4.476;2024-01-25T11:13:16;67.40;;;28.70;;
16393;SDS011;8306;51.128;4.476;2024-01-25T11:15:42;60.87;;;26.57;;
16393;SDS011;8306;51.128;4.476;2024-01-25T11:18:09;67.43;;;26.97;;
16393;SDS011;8306;51.128;4.476;2024-01-25T11:20:35;58.90;;;25.43;;
16393;SDS011;8306;51.128;4.476;2024-01-25T11:23:02;56.80;;;25.93;;
16393;SDS011;8306;51.128;4.476;2024-01-25T11:25:28;69.83;;;27.03;;
16393;SDS011;8306;51.128;4.476;2024-01-25T11:27:58;66.30;;;27.10;;
16393;SDS011;8306;51.128;4.476;2024-01-25T11:30:25;61.23;;;26.53;;
16393;SDS011;8306;51.128;4.476;2024-01-25T11:32:53;63.33;;;26.80;;
16393;SDS011;8306;51.128;4.476;2024-01-25T11:35:20;61.50;;;25.37;;
16393;SDS011;8306;51.128;4.476;2024-01-25T11:37:47;70.77;;;28.10;;
16393;SDS011;8306;51.128;4.476;2024-01-25T11:40:13;53.83;;;25.23;;
16393;SDS011;8306;51.128;4.476;2024-01-25T11:42:39;47.93;;;23.87;;
16393;SDS011;8306;51.128;4.476;2024-01-25T11:45:06;54.63;;;23.83;;
16393;SDS011;8306;51.128;4.476;2024-01-25T11:47:32;68.60;;;27.60;;
16393;SDS011;8306;51.128;4.476;2024-01-25T11:49:58;61.90;;;26.83;;
16393;SDS011;8306;51.128;4.476;2024-01-25T11:52:25;59.83;;;25.63;;
16393;SDS011;8306;51.128;4.476;2024-01-25T11:54:51;60.07;;;26.87;;
16393;SDS011;8306;51.128;4.476;2024-01-25T11:57:18;54.13;;;24.43;;
16393;SDS011;8306;51.128;4.476;2024-01-25T11:59:44;51.93;;;24.77;;
16393;SDS011;8306;51.128;4.476;2024-01-25T12:02:12;66.70;;;26.50;;
16393;SDS011;8306;51.128;4.476;2024-01-25T12:04:37;56.07;;;24.33;;
16393;SDS011;8306;51.128;4.476;2024-01-25T12:07:04;55.33;;;24.67;;
16393;SDS011;8306;51.128;4.476;2024-01-25T12:09:30;53.00;;;23.47;;
16393;SDS011;8306;51.128;4.476;2024-01-25T12:11:57;67.73;;;24.83;;
16393;SDS011;8306;51.128;4.476;2024-01-25T12:14:24;55.13;;;25.03;;
16393;SDS011;8306;51.128;4.476;2024-01-25T12:16:50;53.57;;;24.23;;
16393;SDS011;8306;51.128;4.476;2024-01-25T12:19:16;47.07;;;22.23;;
16393;SDS011;8306;51.128;4.476;2024-01-25T12:21:45;49.50;;;23.90;;
16393;SDS011;8306;51.128;4.476;2024-01-25T12:24:12;41.77;;;22.13;;
16393;SDS011;8306;51.128;4.476;2024-01-25T12:26:38;54.33;;;24.00;;
16393;SDS011;8306;51.128;4.476;2024-01-25T12:29:05;53.87;;;23.50;;
16393;SDS011;8306;51.128;4.476;2024-01-25T12:31:31;54.33;;;23.23;;
16393;SDS011;8306;51.128;4.476;2024-01-25T12:33:58;50.93;;;23.43;;
16393;SDS011;8306;51.128;4.476;2024-01-25T12:36:24;49.90;;;23.17;;
16393;SDS011;8306;51.128;4.476;2024-01-25T12:38:51;53.00;;;22.33;;
16393;SDS011;8306;51.128;4.476;2024-01-25T12:41:17;53.43;;;22.50;;
16393;SDS011;8306;51.128;4.476;2024-01-25T12:43:44;48.73;;;20.43;;
16393;SDS011;8306;51.128;4.476;2024-01-25T12:46:10;54.93;;;21.17;;
16393;SDS011;8306;51.128;4.476;2024-01-25T12:48:36;48.53;;;20.43;;
16393;SDS011;8306;51.128;4.476;2024-01-25T12:51:03;43.80;;;20.00;;
16393;SDS011;8306;51.128;4.476;2024-01-25T12:53:29;48.13;;;19.77;;
16393;SDS011;8306;51.128;4.476;2024-01-25T12:55:56;43.57;;;17.00;;
16393;SDS011;8306;51.128;4.476;2024-01-25T12:58:22;50.00;;;18.47;;
16393;SDS011;8306;51.128;4.476;2024-01-25T13:00:49;42.57;;;16.87;;
16393;SDS011;8306;51.128;4.476;2024-01-25T13:03:15;42.60;;;16.07;;
16393;SDS011;8306;51.128;4.476;2024-01-25T13:05:42;42.27;;;15.03;;
16393;SDS011;8306;51.128;4.476;2024-01-25T13:08:08;42.20;;;15.50;;
16393;SDS011;8306;51.128;4.476;2024-01-25T13:10:35;34.40;;;14.07;;
16393;SDS011;8306;51.128;4.476;2024-01-25T13:13:01;39.63;;;13.70;;
16393;SDS011;8306;51.128;4.476;2024-01-25T13:15:28;26.17;;;12.70;;
16393;SDS011;8306;51.128;4.476;2024-01-25T13:17:54;29.47;;;12.43;;
16393;SDS011;8306;51.128;4.476;2024-01-25T13:20:21;34.27;;;13.47;;
16393;SDS011;8306;51.128;4.476;2024-01-25T13:22:47;34.07;;;12.80;;
16393;SDS011;8306;51.128;4.476;2024-01-25T13:25:14;29.10;;;11.40;;
16393;SDS011;8306;51.128;4.476;2024-01-25T13:27:40;24.80;;;11.80;;
16393;SDS011;8306;51.128;4.476;2024-01-25T13:30:08;30.77;;;11.23;;
16393;SDS011;8306;51.128;4.476;2024-01-25T13:32:34;21.97;;;11.13;;
16393;SDS011;8306;51.128;4.476;2024-01-25T13:35:01;21.50;;;10.00;;
16393;SDS011;8306;51.128;4.476;2024-01-25T13:37:27;23.80;;;9.97;;
16393;SDS011;8306;51.128;4.476;2024-01-25T13:39:54;21.07;;;9.27;;
16393;SDS011;8306;51.128;4.476;2024-01-25T13:42:20;19.70;;;9.20;;
16393;SDS011;8306;51.128;4.476;2024-01-25T13:44:46;22.00;;;9.77;;
16393;SDS011;8306;51.128;4.476;2024-01-25T13:47:13;14.30;;;8.30;;
16393;SDS011;8306;51.128;4.476;2024-01-25T13:49:39;13.80;;;7.97;;
16393;SDS011;8306;51.128;4.476;2024-01-25T13:52:06;17.17;;;9.27;;
16393;SDS011;8306;51.128;4.476;2024-01-25T13:54:32;24.17;;;10.20;;
16393;SDS011;8306;51.128;4.476;2024-01-25T13:56:59;15.13;;;9.97;;
16393;SDS011;8306;51.128;4.476;2024-01-25T13:59:25;20.53;;;10.90;;
16393;SDS011;8306;51.128;4.476;2024-01-25T14:01:52;21.03;;;9.73;;
16393;SDS011;8306;51.128;4.476;2024-01-25T14:04:18;19.53;;;8.67;;
16393;SDS011;8306;51.128;4.476;2024-01-25T14:06:45;17.00;;;9.13;;
16393;SDS011;8306;51.128;4.476;2024-01-25T14:09:11;17.10;;;8.73;;
16393;SDS011;8306;51.128;4.476;2024-01-25T14:11:38;9.60;;;7.03;;
16393;SDS011;8306;51.128;4.476;2024-01-25T14:14:04;13.23;;;8.20;;
16393;SDS011;8306;51.128;4.476;2024-01-25T14:16:31;13.83;;;7.67;;
16393;SDS011;8306;51.128;4.476;2024-01-25T14:18:57;11.83;;;7.27;;
16393;SDS011;8306;51.128;4.476;2024-01-25T14:21:24;14.27;;;8.23;;
16393;SDS011;8306;51.128;4.476;2024-01-25T14:23:50;10.83;;;7.47;;
16393;SDS011;8306;51.128;4.476;2024-01-25T14:26:17;14.73;;;9.00;;
16393;SDS011;8306;51.128;4.476;2024-01-25T14:28:43;10.20;;;7.20;;
16393;SDS011;8306;51.128;4.476;2024-01-25T14:31:10;9.93;;;8.13;;
16393;SDS011;8306;51.128;4.476;2024-01-25T14:33:36;7.10;;;6.40;;
16393;SDS011;8306;51.128;4.476;2024-01-25T14:36:03;9.17;;;7.27;;
16393;SDS011;8306;51.128;4.476;2024-01-25T14:38:29;7.67;;;6.87;;